Time;durP1;ratioP1;P1;durP2;ratioP2;P2;SDS_P1;SDS_P2;PMS_P1;PMS_P2;Temp;Humidity;BMP_temperature;BMP_pressure;BME280_temperature;BME280_humidity;BME280_pressure;Samples;Min_cycle;Max_cycle;Signal;HPM_P1;HPM_P2
2020/12/21 00:01:57;;;;;;;14.05;4.70;;;5.50;99.90;;;;;;4952985;29;20035;-89
2020/12/21 00:04:23;;;;;;;14.80;6.32;;;5.50;99.90;;;;;;4942454;29;20027;-88
2020/12/21 00:06:57;;;;;;;12.20;5.63;;;5.40;99.90;;;;;;4939621;29;20064;-90
2020/12/21 00:09:24;;;;;;;11.35;4.60;;;5.30;99.90;;;;;;4952708;29;20042;-94
2020/12/21 00:11:50;;;;;;;12.60;4.93;;;5.20;99.90;;;;;;4952612;29;20079;-93
2020/12/21 00:14:18;;;;;;;14.55;4.68;;;5.30;99.90;;;;;;4952726;29;20065;-94
2020/12/21 00:16:51;;;;;;;14.85;4.95;;;5.30;99.90;;;;;;4952304;29;20030;-93
2020/12/21 00:19:19;;;;;;;12.38;4.65;;;5.40;99.90;;;;;;4935756;29;20157;-93
2020/12/21 00:21:49;;;;;;;15.13;5.43;;;5.30;99.90;;;;;;4954991;28;20099;-91
2020/12/21 00:24:16;;;;;;;8.20;3.83;;;5.30;99.90;;;;;;4907191;29;20029;-90
2020/12/21 00:26:46;;;;;;;11.38;4.47;;;5.30;99.90;;;;;;4906786;29;20033;-90
2020/12/21 00:29:12;;;;;;;11.90;3.87;;;5.40;99.90;;;;;;4884730;29;20054;-91
2020/12/21 00:31:40;;;;;;;9.48;4.28;;;5.40;99.90;;;;;;4885175;29;20085;-91
2020/12/21 00:34:12;;;;;;;15.95;4.63;;;5.30;99.90;;;;;;4884911;29;20025;-91
2020/12/21 00:36:47;;;;;;;18.10;4.80;;;5.30;99.90;;;;;;4884604;29;20026;-91
2020/12/21 00:39:13;;;;;;;11.90;4.82;;;5.30;99.90;;;;;;4883756;29;20030;-91
2020/12/21 00:41:41;;;;;;;14.90;5.28;;;5.30;99.90;;;;;;4865713;29;20074;-93
2020/12/21 00:44:07;;;;;;;14.40;5.03;;;5.20;99.90;;;;;;4866012;29;20034;-92
2020/12/21 00:46:34;;;;;;;14.10;5.15;;;5.20;99.90;;;;;;4865938;29;20026;-91
2020/12/21 00:49:02;;;;;;;11.45;4.35;;;5.20;99.90;;;;;;4865565;29;20106;-91
2020/12/21 00:51:29;;;;;;;10.00;4.35;;;5.10;99.90;;;;;;4882068;29;20044;-91
2020/12/21 00:54:00;;;;;;;13.30;4.72;;;5.00;99.90;;;;;;4878739;29;20097;-92
2020/12/21 00:56:30;;;;;;;15.32;4.25;;;5.10;99.90;;;;;;4862551;29;20030;-92
2020/12/21 00:58:58;;;;;;;12.15;3.90;;;5.20;99.90;;;;;;4877533;29;20033;-92
2020/12/21 01:01:29;;;;;;;10.55;3.65;;;5.10;99.90;;;;;;4929741;29;20059;-94
2020/12/21 01:04:02;;;;;;;11.55;4.60;;;5.20;99.90;;;;;;4920582;29;20043;-96
2020/12/21 01:06:28;;;;;;;8.38;3.72;;;5.10;99.90;;;;;;4935077;29;20115;-93
2020/12/21 01:08:56;;;;;;;10.02;2.85;;;5.30;99.90;;;;;;4934673;29;20417;-93
2020/12/21 01:11:23;;;;;;;10.93;3.25;;;5.30;99.90;;;;;;4933251;29;20051;-92
2020/12/21 01:13:49;;;;;;;13.43;4.95;;;5.20;99.90;;;;;;4949545;29;20049;-92
2020/12/21 01:16:18;;;;;;;11.50;4.18;;;5.20;99.90;;;;;;4956841;28;20012;-91
2020/12/21 01:19:26;;;;;;;13.40;5.35;;;5.30;99.90;;;;;;4960237;28;20008;-90
2020/12/21 01:21:52;;;;;;;11.85;4.07;;;5.30;99.90;;;;;;4943078;28;20063;-91
2020/12/21 01:24:18;;;;;;;13.32;3.38;;;5.30;99.90;;;;;;4926476;29;20035;-89
2020/12/21 01:26:43;;;;;;;13.48;3.67;;;5.20;99.90;;;;;;4955541;29;20107;-93
2020/12/21 01:29:12;;;;;;;14.35;4.32;;;5.10;99.90;;;;;;4953511;29;20091;-93
2020/12/21 01:31:38;;;;;;;8.50;3.08;;;5.10;99.90;;;;;;4934202;29;20091;-95
2020/12/21 01:34:03;;;;;;;8.57;2.92;;;5.20;99.90;;;;;;4960734;29;20030;-91
2020/12/21 01:36:31;;;;;;;10.27;2.90;;;5.20;99.90;;;;;;4968174;29;20035;-93
2020/12/21 01:38:59;;;;;;;6.30;2.40;;;5.10;99.90;;;;;;4951400;29;20027;-93
2020/12/21 01:41:25;;;;;;;6.18;3.40;;;5.20;99.90;;;;;;4952111;29;20031;-92
2020/12/21 01:44:00;;;;;;;11.82;4.70;;;5.20;99.90;;;;;;4951819;29;20035;-93
2020/12/21 01:46:27;;;;;;;11.05;2.85;;;5.20;99.90;;;;;;4971005;29;20032;-92
2020/12/21 01:48:53;;;;;;;7.00;2.80;;;5.10;99.90;;;;;;4968183;29;20030;-93
2020/12/21 01:51:29;;;;;;;9.38;2.70;;;5.10;99.90;;;;;;4951677;29;20038;-95
2020/12/21 01:53:55;;;;;;;7.80;2.20;;;5.20;99.90;;;;;;4966963;29;20029;-90
2020/12/21 01:56:23;;;;;;;10.23;3.33;;;5.20;99.90;;;;;;4945988;29;20044;-92
2020/12/21 01:58:49;;;;;;;7.70;3.58;;;5.30;99.90;;;;;;4930955;29;20047;-93
2020/12/21 02:01:16;;;;;;;9.52;2.35;;;5.30;99.90;;;;;;4946386;29;20058;-92
2020/12/21 02:03:43;;;;;;;4.63;2.33;;;5.30;99.90;;;;;;4947996;29;20095;-93
2020/12/21 02:06:12;;;;;;;10.90;2.38;;;5.50;99.90;;;;;;4941342;28;20031;-91
2020/12/21 02:08:40;;;;;;;9.45;2.40;;;5.40;99.90;;;;;;4958967;28;20026;-93
2020/12/21 02:14:29;;;;;;;;;;;5.40;99.90;;;;;;4959151;28;20031;-92
2020/12/21 02:16:56;;;;;;;12.93;2.50;;;5.30;99.90;;;;;;4959053;28;19906;-93
2020/12/21 02:19:23;;;;;;;7.75;2.35;;;5.20;99.90;;;;;;4958943;28;20040;-92
2020/12/21 02:21:50;;;;;;;10.88;3.65;;;5.20;99.90;;;;;;4958939;28;20040;-93
2020/12/21 02:24:15;;;;;;;7.80;2.25;;;5.20;99.90;;;;;;4958830;28;20028;-91
2020/12/21 02:26:43;;;;;;;14.80;3.30;;;5.30;99.90;;;;;;4947404;28;20046;-91
2020/12/21 02:29:09;;;;;;;9.60;3.38;;;5.30;99.90;;;;;;4946789;28;20035;-92
2020/12/21 02:31:35;;;;;;;7.75;2.58;;;5.30;99.90;;;;;;4962243;28;20030;-91
2020/12/21 02:34:05;;;;;;;8.48;2.63;;;5.40;99.90;;;;;;4962215;28;20034;-90
2020/12/21 02:36:31;;;;;;;8.77;2.38;;;5.40;99.90;;;;;;4978737;28;20035;-92
2020/12/21 02:38:59;;;;;;;11.70;2.90;;;5.60;99.90;;;;;;4978443;28;20031;-91
2020/12/21 02:41:25;;;;;;;6.20;3.03;;;5.70;99.90;;;;;;4972333;28;20150;-93
2020/12/21 02:43:50;;;;;;;9.23;3.08;;;5.70;99.90;;;;;;4970483;28;20585;-93
2020/12/21 02:46:17;;;;;;;9.70;2.88;;;5.60;99.90;;;;;;4955040;29;20095;-93
2020/12/21 02:48:47;;;;;;;9.60;2.47;;;5.60;99.90;;;;;;4957266;29;20083;-90
2020/12/21 02:51:17;;;;;;;9.18;2.70;;;5.50;99.90;;;;;;4939442;29;20072;-91
2020/12/21 02:53:44;;;;;;;12.02;2.65;;;5.60;99.90;;;;;;4954374;29;20035;-90
2020/12/21 02:56:15;;;;;;;9.73;3.38;;;5.50;99.90;;;;;;4961706;28;20031;-91
2020/12/21 02:58:45;;;;;;;8.25;2.83;;;5.40;99.90;;;;;;4959674;29;20027;-92
2020/12/21 03:01:12;;;;;;;5.38;2.65;;;5.50;99.90;;;;;;4956853;29;20039;-92
2020/12/21 03:03:40;;;;;;;7.97;2.47;;;5.50;99.90;;;;;;4956954;29;20449;-89
2020/12/21 03:06:05;;;;;;;7.68;2.47;;;5.50;99.90;;;;;;4959677;29;20015;-90
2020/12/21 03:08:32;;;;;;;2.95;1.92;;;5.60;99.90;;;;;;4964019;29;20071;-89
2020/12/21 03:10:58;;;;;;;10.40;2.80;;;5.50;99.90;;;;;;4964808;28;20046;-91
2020/12/21 03:13:23;;;;;;;10.77;2.85;;;5.60;99.90;;;;;;4965528;28;20019;-90
2020/12/21 03:15:51;;;;;;;12.10;3.33;;;5.50;99.90;;;;;;4965170;28;20019;-90
2020/12/21 03:18:17;;;;;;;10.20;3.55;;;5.50;99.90;;;;;;4963405;28;20031;-93
2020/12/21 03:20:42;;;;;;;10.30;4.00;;;5.40;99.90;;;;;;4958116;29;20039;-91
2020/12/21 03:23:08;;;;;;;9.88;4.45;;;5.50;99.90;;;;;;4915674;29;20126;-90
2020/12/21 03:25:34;;;;;;;15.05;5.63;;;5.60;99.90;;;;;;4923494;29;20028;-91
2020/12/21 03:27:59;;;;;;;11.15;5.45;;;5.50;99.90;;;;;;4926693;29;20084;-92
2020/12/21 03:30:27;;;;;;;16.85;5.40;;;5.50;99.90;;;;;;4925914;28;20048;-92
2020/12/21 03:32:53;;;;;;;14.27;5.32;;;5.50;99.90;;;;;;4922219;29;20043;-92
2020/12/21 03:35:18;;;;;;;9.68;4.68;;;5.40;99.90;;;;;;4933347;29;20036;-91
2020/12/21 03:37:44;;;;;;;13.90;4.97;;;5.40;99.90;;;;;;4931287;29;20047;-93
2020/12/21 03:40:12;;;;;;;8.45;4.68;;;5.50;99.90;;;;;;4917146;29;20040;-91
2020/12/21 03:42:40;;;;;;;8.27;4.35;;;5.40;99.90;;;;;;4931251;29;20064;-94
2020/12/21 03:45:08;;;;;;;9.88;4.32;;;5.40;99.90;;;;;;4919972;29;20072;-91
2020/12/21 03:47:34;;;;;;;13.13;5.00;;;5.50;99.90;;;;;;4918610;29;20091;-93
2020/12/21 03:50:00;;;;;;;13.68;4.30;;;5.60;99.90;;;;;;4918517;29;20060;-94
2020/12/21 03:52:25;;;;;;;8.82;3.50;;;5.70;99.90;;;;;;4922344;29;20035;-92
2020/12/21 03:54:52;;;;;;;8.93;3.80;;;5.70;99.90;;;;;;4918412;29;20054;-93
2020/12/21 03:57:19;;;;;;;12.57;3.85;;;5.50;99.90;;;;;;4919228;29;20046;-92
2020/12/21 03:59:45;;;;;;;6.70;3.65;;;5.30;99.90;;;;;;4910472;29;20031;-92
2020/12/21 04:02:10;;;;;;;7.38;3.40;;;5.30;99.90;;;;;;4942292;29;20491;-94
2020/12/21 04:04:36;;;;;;;12.35;4.13;;;5.30;99.90;;;;;;4964648;29;20016;-90
2020/12/21 04:07:02;;;;;;;9.77;3.30;;;5.30;99.90;;;;;;4947178;29;20059;-90
2020/12/21 04:09:27;;;;;;;8.52;3.00;;;5.30;99.90;;;;;;4952009;29;20028;-91
2020/12/21 04:11:54;;;;;;;9.00;3.33;;;5.20;99.90;;;;;;4972837;29;20476;-92
2020/12/21 04:14:22;;;;;;;10.40;3.17;;;5.10;99.90;;;;;;4960515;29;20031;-93
2020/12/21 04:16:50;;;;;;;13.75;3.38;;;5.20;99.90;;;;;;4963301;29;20035;-95
2020/12/21 04:19:16;;;;;;;7.75;2.92;;;5.20;99.90;;;;;;4973050;28;20043;-91
2020/12/21 04:21:43;;;;;;;11.30;4.35;;;5.10;99.90;;;;;;4980587;28;20059;-91
2020/12/21 04:24:09;;;;;;;9.55;3.55;;;5.20;99.90;;;;;;4964135;28;20107;-92
2020/12/21 04:26:37;;;;;;;13.30;3.53;;;5.30;99.90;;;;;;4963870;28;20019;-92
2020/12/21 04:29:02;;;;;;;15.98;4.63;;;5.30;99.90;;;;;;4977662;28;20031;-94
2020/12/21 04:31:28;;;;;;;11.38;5.00;;;5.20;99.90;;;;;;4977496;29;20026;-92
2020/12/21 04:33:55;;;;;;;10.73;4.55;;;5.10;99.90;;;;;;4957066;28;20043;-89
2020/12/21 04:36:21;;;;;;;13.05;4.00;;;5.20;99.90;;;;;;4960462;29;20031;-89
2020/12/21 04:38:46;;;;;;;8.18;3.50;;;5.20;99.90;;;;;;4955140;29;20034;-92
2020/12/21 04:41:12;;;;;;;8.02;3.33;;;5.10;99.90;;;;;;4942039;29;20023;-93
2020/12/21 04:43:38;;;;;;;11.80;5.05;;;5.20;99.90;;;;;;4968226;28;20026;-90
2020/12/21 04:46:07;;;;;;;11.13;4.13;;;5.20;99.90;;;;;;4962162;28;20090;-91
2020/12/21 04:48:44;;;;;;;10.70;3.42;;;5.10;99.90;;;;;;4962294;28;20019;-93
2020/12/21 04:51:10;;;;;;;11.73;3.50;;;5.20;99.90;;;;;;4954916;28;20058;-93
2020/12/21 04:53:39;;;;;;;9.88;4.47;;;5.10;99.90;;;;;;4950786;29;20030;-94
2020/12/21 04:56:05;;;;;;;9.77;3.67;;;5.10;99.90;;;;;;4949026;29;20064;-93
2020/12/21 04:58:30;;;;;;;10.60;3.88;;;5.20;99.90;;;;;;4966206;29;20093;-93
2020/12/21 05:00:56;;;;;;;11.82;4.53;;;5.10;99.90;;;;;;4948196;29;20130;-93
2020/12/21 05:03:22;;;;;;;14.45;4.35;;;5.10;99.90;;;;;;4961756;29;20129;-94
2020/12/21 05:05:47;;;;;;;7.90;4.38;;;5.10;99.90;;;;;;4961453;28;20027;-94
2020/12/21 05:08:33;;;;;;;10.80;4.45;;;5.20;99.90;;;;;;4960447;29;20023;-94
2020/12/21 05:11:03;;;;;;;14.57;4.20;;;5.30;99.90;;;;;;4924331;29;20048;-92
2020/12/21 05:13:32;;;;;;;14.27;4.30;;;5.30;99.90;;;;;;4906293;29;20040;-94
2020/12/21 05:15:59;;;;;;;8.50;4.00;;;5.30;99.90;;;;;;4908107;29;20043;-96
2020/12/21 05:18:29;;;;;;;12.48;5.28;;;5.40;99.90;;;;;;4904410;29;20485;-93
2020/12/21 05:21:05;;;;;;;9.40;5.30;;;5.40;99.90;;;;;;4902285;29;20039;-93
2020/12/21 05:23:31;;;;;;;12.02;5.45;;;5.50;99.90;;;;;;4848667;29;20106;-91
2020/12/21 05:26:07;;;;;;;18.67;6.55;;;5.40;99.90;;;;;;4862412;29;20486;-91
2020/12/21 05:28:35;;;;;;;17.98;6.75;;;5.50;99.90;;;;;;4845646;29;20033;-92
2020/12/21 05:31:05;;;;;;;9.10;4.93;;;5.50;99.90;;;;;;4862072;29;20045;-91
2020/12/21 05:33:33;;;;;;;15.55;4.72;;;5.50;99.90;;;;;;4846117;29;20033;-91
2020/12/21 05:36:10;;;;;;;10.98;4.97;;;5.40;99.90;;;;;;4862523;29;20037;-93
2020/12/21 05:38:36;;;;;;;11.88;5.03;;;5.50;99.90;;;;;;4867641;29;20045;-94
2020/12/21 05:41:19;;;;;;;13.43;4.50;;;5.50;99.90;;;;;;4852629;29;20037;-93
2020/12/21 05:43:46;;;;;;;8.60;3.63;;;5.40;99.90;;;;;;4866361;29;20112;-91
2020/12/21 05:46:12;;;;;;;9.15;4.03;;;5.40;99.90;;;;;;4870715;29;20036;-93
2020/12/21 05:48:41;;;;;;;9.50;4.45;;;5.50;99.90;;;;;;4904335;29;20040;-93
2020/12/21 05:51:09;;;;;;;15.68;5.20;;;5.40;99.90;;;;;;4905156;29;20040;-93
2020/12/21 05:53:58;;;;;;;8.65;4.00;;;5.40;99.90;;;;;;4920353;29;20025;-93
2020/12/21 05:56:25;;;;;;;12.05;4.22;;;5.40;99.90;;;;;;4903148;29;20021;-93
2020/12/21 05:58:54;;;;;;;13.80;3.72;;;5.40;99.90;;;;;;4918867;29;20032;-93
2020/12/21 06:01:22;;;;;;;9.43;4.10;;;5.30;99.90;;;;;;4935430;28;20060;-93
2020/12/21 06:04:02;;;;;;;13.27;4.70;;;5.30;99.90;;;;;;4943969;29;20034;-94
2020/12/21 06:06:32;;;;;;;9.02;3.78;;;5.30;99.90;;;;;;4942006;29;20031;-94
2020/12/21 06:09:03;;;;;;;9.35;4.68;;;5.30;99.90;;;;;;4954650;28;20020;-93
2020/12/21 06:11:35;;;;;;;18.77;5.05;;;5.30;99.90;;;;;;4966340;28;20046;-91
2020/12/21 06:14:11;;;;;;;11.98;4.65;;;5.30;99.90;;;;;;4961392;28;20053;-92
2020/12/21 06:16:40;;;;;;;8.63;3.80;;;5.30;99.90;;;;;;4973267;28;20035;-94
2020/12/21 06:19:07;;;;;;;14.93;5.25;;;5.30;99.90;;;;;;4949139;29;20032;-94
2020/12/21 06:21:38;;;;;;;13.02;4.55;;;5.30;99.90;;;;;;4948464;29;20035;-93
2020/12/21 06:24:19;;;;;;;9.35;4.15;;;5.40;99.90;;;;;;4948580;29;20365;-93
2020/12/21 06:26:46;;;;;;;;;;;5.50;99.90;;;;;;4949426;29;20438;-92
2020/12/21 06:29:15;;;;;;;12.65;5.00;;;5.50;99.90;;;;;;4948778;29;19984;-92
2020/12/21 06:32:05;;;;;;;9.27;4.85;;;5.40;99.90;;;;;;4953492;29;20376;-91
2020/12/21 06:34:50;;;;;;;12.75;4.82;;;5.50;99.90;;;;;;4940228;29;20036;-91
2020/12/21 06:37:19;;;;;;;11.25;4.55;;;5.50;99.90;;;;;;4915098;29;20055;-92
2020/12/21 06:39:56;;;;;;;12.80;4.53;;;5.60;99.90;;;;;;4927409;29;20442;-89
2020/12/21 06:42:24;;;;;;;14.18;5.10;;;5.60;99.90;;;;;;4902049;29;20103;-89
2020/12/21 06:44:54;;;;;;;9.27;4.43;;;5.60;99.90;;;;;;4889182;29;20045;-92
2020/12/21 06:47:20;;;;;;;8.85;4.38;;;5.70;99.90;;;;;;4889237;29;20057;-91
2020/12/21 06:49:46;;;;;;;12.02;5.13;;;5.70;99.90;;;;;;4889058;29;20061;-93
2020/12/21 06:52:12;;;;;;;9.88;4.40;;;5.80;99.90;;;;;;4888323;29;20100;-93
2020/12/21 06:54:38;;;;;;;13.90;4.85;;;5.80;99.90;;;;;;4886509;29;20033;-90
2020/12/21 06:57:03;;;;;;;9.68;3.70;;;5.80;99.90;;;;;;4880545;29;20037;-91
2020/12/21 06:59:30;;;;;;;12.35;4.55;;;5.90;99.90;;;;;;4871958;29;20052;-91
2020/12/21 07:02:00;;;;;;;11.50;4.55;;;5.90;99.90;;;;;;4887230;29;20104;-94
2020/12/21 07:04:28;;;;;;;9.70;4.10;;;5.90;99.90;;;;;;4903773;29;20040;-92
2020/12/21 07:06:55;;;;;;;8.45;4.13;;;6.00;99.90;;;;;;4872408;29;20023;-93
2020/12/21 07:09:29;;;;;;;12.82;5.13;;;5.90;99.90;;;;;;4884324;29;20037;-90
2020/12/21 07:12:01;;;;;;;9.88;4.40;;;5.90;99.90;;;;;;4914877;29;20144;-94
2020/12/21 07:14:33;;;;;;;10.98;4.38;;;6.00;99.90;;;;;;4907646;29;20037;-92
2020/12/21 07:17:17;;;;;;;15.93;4.90;;;6.10;99.90;;;;;;4896181;29;20489;-92
2020/12/21 07:19:44;;;;;;;10.60;4.50;;;6.00;99.90;;;;;;4904652;29;20124;-93
2020/12/21 07:22:11;;;;;;;9.73;4.30;;;6.10;99.90;;;;;;4889612;29;20036;-93
2020/12/21 07:24:41;;;;;;;8.32;3.90;;;6.20;99.90;;;;;;4868443;29;20037;-92
2020/12/21 07:27:08;;;;;;;13.27;4.53;;;6.20;99.90;;;;;;4868702;29;20034;-93
2020/12/21 07:29:41;;;;;;;14.25;4.53;;;6.20;99.90;;;;;;4849580;29;20033;-88
2020/12/21 07:32:08;;;;;;;13.98;4.50;;;6.20;99.90;;;;;;4865266;29;20101;-89
2020/12/21 07:34:36;;;;;;;10.02;4.43;;;6.20;99.90;;;;;;4865511;29;20034;-89
2020/12/21 07:37:16;;;;;;;13.77;5.65;;;6.30;99.90;;;;;;4866639;29;20041;-89
2020/12/21 07:39:50;;;;;;;12.15;4.40;;;6.30;99.90;;;;;;4855470;29;20041;-90
2020/12/21 07:42:21;;;;;;;11.98;4.50;;;6.40;99.90;;;;;;4852119;29;20037;-89
2020/12/21 07:44:52;;;;;;;10.65;4.95;;;6.40;99.90;;;;;;4858060;29;20032;-87
2020/12/21 07:47:39;;;;;;;14.77;5.80;;;6.40;99.90;;;;;;4872978;29;20032;-84
2020/12/21 07:50:09;;;;;;;10.57;4.40;;;6.40;99.90;;;;;;4865980;29;20040;-85
2020/12/21 07:52:39;;;;;;;13.88;4.30;;;6.40;99.90;;;;;;4891960;29;20025;-89
2020/12/21 07:55:11;;;;;;;9.88;4.63;;;6.50;99.90;;;;;;4918187;29;20343;-88
2020/12/21 07:57:43;;;;;;;10.63;4.32;;;6.50;99.90;;;;;;4913023;29;20099;-89
2020/12/21 08:00:12;;;;;;;;;;;6.50;99.90;;;;;;4929546;29;20023;-90
2020/12/21 08:02:49;;;;;;;12.13;3.83;;;6.50;99.90;;;;;;5625741;23;19921;-91
2020/12/21 08:05:43;;;;;;;8.52;3.58;;;6.60;99.90;;;;;;4935754;29;20044;-92
2020/12/21 08:08:23;;;;;;;7.75;4.32;;;6.70;99.90;;;;;;4920051;29;20132;-93
2020/12/21 08:11:08;;;;;;;7.93;3.50;;;6.70;99.90;;;;;;5313847;23;20053;-93
2020/12/21 08:13:37;;;;;;;10.10;3.70;;;6.80;99.90;;;;;;4978087;28;20031;-92
2020/12/21 08:16:36;;;;;;;12.98;4.18;;;6.90;99.90;;;;;;4973471;28;20101;-94
2020/12/21 08:19:20;;;;;;;12.57;3.60;;;7.00;99.90;;;;;;4955323;28;20031;-93
2020/12/21 08:30:00;;;;;;;;;;;;;;;;;;;;;
2020/12/21 08:32:30;;;;;;;7.32;2.90;;;7.20;99.90;;;;;;4883748;29;20111;-93
2020/12/21 08:35:07;;;;;;;9.30;3.30;;;7.20;99.90;;;;;;4932634;29;20028;-92
2020/12/21 08:37:48;;;;;;;10.27;3.50;;;7.30;99.90;;;;;;4934335;29;20099;-91
2020/12/21 08:40:24;;;;;;;7.38;3.20;;;7.30;99.90;;;;;;4929946;29;20028;-93
2020/12/21 08:42:52;;;;;;;9.15;3.45;;;7.40;99.90;;;;;;4933547;29;20032;-93
2020/12/21 08:45:20;;;;;;;11.10;3.53;;;7.40;99.90;;;;;;4918979;28;20043;-93
2020/12/21 08:47:49;;;;;;;15.57;4.45;;;7.50;99.90;;;;;;5071713;23;20086;-94
2020/12/21 08:50:17;;;;;;;7.15;2.92;;;7.50;99.90;;;;;;4957638;29;20035;-94
2020/12/21 08:52:49;;;;;;;11.00;3.40;;;7.50;99.90;;;;;;4942533;29;20044;-94
2020/12/21 08:55:19;;;;;;;43.75;9.52;;;7.50;99.90;;;;;;4884883;29;20039;-93
2020/12/21 08:57:46;;;;;;;14.25;3.30;;;7.50;99.90;;;;;;4958210;28;20015;-94
2020/12/21 09:04:25;;;;;;;8.35;2.67;;;7.60;99.90;;;;;;4989016;28;20070;-95
2020/12/21 09:06:52;;;;;;;12.32;4.25;;;7.60;99.90;;;;;;4916313;29;20083;-96
2020/12/21 09:09:22;;;;;;;8.93;2.92;;;7.60;99.90;;;;;;4899581;29;20084;-96
2020/12/21 09:12:00;;;;;;;9.90;3.38;;;7.70;99.90;;;;;;4917415;29;20035;-95
2020/12/21 09:15:04;;;;;;;7.53;2.97;;;7.70;99.90;;;;;;4902246;29;20379;-95
2020/12/21 09:17:30;;;;;;;11.13;4.68;;;7.80;99.90;;;;;;4931169;29;20028;-95
2020/12/21 09:19:58;;;;;;;9.75;3.42;;;7.80;99.90;;;;;;4896568;29;20356;-94
2020/12/21 09:22:26;;;;;;;7.72;3.85;;;7.80;99.90;;;;;;4937167;29;20024;-94
2020/12/21 09:24:55;;;;;;;12.95;3.30;;;7.90;99.90;;;;;;4938241;29;20032;-95
2020/12/21 09:27:27;;;;;;;8.15;3.22;;;7.90;99.90;;;;;;4904121;29;20126;-93
2020/12/21 09:30:03;;;;;;;12.10;4.68;;;7.90;99.90;;;;;;4901624;29;20041;-92
2020/12/21 09:32:30;;;;;;;13.23;5.30;;;7.90;99.90;;;;;;4913944;29;20039;-95
2020/12/21 09:34:57;;;;;;;6.57;2.83;;;8.00;99.90;;;;;;4903336;29;20049;-93
2020/12/21 09:37:26;;;;;;;30.52;5.32;;;8.00;99.90;;;;;;4917487;29;20024;-93
2020/12/21 09:39:53;;;;;;;12.88;4.03;;;8.00;99.90;;;;;;4876418;29;20037;-94
2020/12/21 09:42:19;;;;;;;7.63;3.05;;;8.10;99.90;;;;;;4856220;29;20089;-94
2020/12/21 09:44:58;;;;;;;9.88;3.45;;;8.10;99.90;;;;;;4844681;29;20034;-94
2020/12/21 09:47:36;;;;;;;12.00;3.90;;;8.10;99.90;;;;;;4812716;29;20039;-93
2020/12/21 09:50:03;;;;;;;9.88;4.13;;;8.20;99.90;;;;;;4809027;29;20070;-91
2020/12/21 09:52:37;;;;;;;9.80;3.08;;;8.10;99.90;;;;;;4806871;29;20153;-90
2020/12/21 09:55:11;;;;;;;9.98;3.28;;;8.30;99.90;;;;;;4807292;29;20108;-93
2020/12/21 09:57:42;;;;;;;9.90;3.72;;;8.40;99.90;;;;;;4808434;29;20065;-96
2020/12/21 10:00:11;;;;;;;7.03;2.85;;;8.50;99.90;;;;;;4824030;29;20099;-92
2020/12/21 10:02:41;;;;;;;11.98;3.40;;;8.60;99.90;;;;;;4816054;29;20035;-92
2020/12/21 10:05:11;;;;;;;5.78;3.20;;;8.60;99.90;;;;;;4813999;29;20050;-91
2020/12/21 10:07:37;;;;;;;7.72;4.05;;;8.70;99.90;;;;;;4819466;29;20100;-93
2020/12/21 10:10:07;;;;;;;5.82;3.33;;;8.70;99.90;;;;;;4782835;30;20051;-90
2020/12/21 10:12:39;;;;;;;6.93;3.08;;;8.70;99.90;;;;;;4805123;29;20093;-91
2020/12/21 10:15:05;;;;;;;9.63;4.40;;;8.80;99.90;;;;;;4833711;29;20094;-89
2020/12/21 10:17:34;;;;;;;10.68;3.40;;;8.80;99.90;;;;;;4814890;29;20493;-90
2020/12/21 10:20:06;;;;;;;10.10;4.00;;;8.90;99.90;;;;;;4822170;29;20099;-90
2020/12/21 10:22:34;;;;;;;8.52;4.03;;;9.00;99.90;;;;;;4823631;29;20035;-90
2020/12/21 10:25:24;;;;;;;9.52;3.78;;;9.10;99.90;;;;;;4813888;29;20116;-92
2020/12/21 10:28:06;;;;;;;9.65;3.50;;;9.10;99.90;;;;;;4809245;29;20449;-89
2020/12/21 10:30:54;;;;;;;9.50;3.88;;;9.10;99.90;;;;;;4819149;29;20042;-91
2020/12/21 10:33:20;;;;;;;9.45;3.33;;;9.10;99.90;;;;;;4843173;29;20014;-90
2020/12/21 10:46:30;;;;;;;6.95;3.67;;;9.10;99.90;;;;;;4945809;29;20117;-91
2020/12/21 10:48:57;;;;;;;7.93;4.30;;;9.20;99.90;;;;;;4903676;29;20075;-92
2020/12/21 10:52:00;;;;;;;7.93;3.38;;;9.20;99.90;;;;;;4888877;29;20104;-88
2020/12/21 10:55:08;;;;;;;11.20;3.60;;;9.30;99.90;;;;;;4896247;29;20101;-90
2020/12/21 10:57:46;;;;;;;10.60;3.97;;;9.30;99.90;;;;;;4869391;29;20017;-92
2020/12/21 11:00:16;;;;;;;8.63;4.00;;;9.30;99.90;;;;;;5113443;23;20043;-93
2020/12/21 11:02:55;;;;;;;14.93;6.15;;;9.20;99.90;;;;;;5372759;23;20042;-89
2020/12/21 11:05:50;;;;;;;9.27;4.78;;;9.20;99.90;;;;;;4987262;28;20027;-90
2020/12/21 11:08:19;;;;;;;9.80;4.20;;;9.20;99.90;;;;;;4967597;29;20039;-90
2020/12/21 11:11:06;;;;;;;15.13;5.65;;;9.20;99.90;;;;;;4971698;28;20037;-89
2020/12/21 11:13:48;;;;;;;10.23;4.53;;;9.20;99.90;;;;;;4921101;28;20031;-89
2020/12/21 11:16:29;;;;;;;13.82;6.05;;;9.20;99.90;;;;;;4942644;29;20038;-90
2020/12/21 11:18:55;;;;;;;11.15;4.65;;;9.10;99.90;;;;;;4940847;29;20066;-87
2020/12/21 11:21:22;;;;;;;8.07;4.97;;;9.20;99.90;;;;;;4949221;28;20039;-89
2020/12/21 11:23:48;;;;;;;9.85;4.72;;;9.10;99.90;;;;;;4942984;28;20103;-89
2020/12/21 11:26:14;;;;;;;14.20;5.78;;;9.20;99.90;;;;;;4977260;28;20043;-88
2020/12/21 11:28:46;;;;;;;16.33;5.70;;;9.20;99.90;;;;;;4967548;29;20090;-90
2020/12/21 11:31:20;;;;;;;12.27;4.72;;;9.20;99.90;;;;;;4949822;29;20046;-90
2020/12/21 11:33:45;;;;;;;12.40;5.68;;;9.10;99.90;;;;;;4923381;29;20046;-88
2020/12/21 11:36:30;;;;;;;13.15;5.35;;;9.10;99.90;;;;;;4931540;29;20031;-89
2020/12/21 11:39:00;;;;;;;10.52;5.13;;;9.10;99.90;;;;;;4935263;29;20055;-89
2020/12/21 11:41:39;;;;;;;9.13;5.18;;;9.20;99.90;;;;;;4938773;29;20036;-89
2020/12/21 11:44:21;;;;;;;12.90;5.35;;;9.10;99.90;;;;;;4934606;28;20023;-93
2020/12/21 11:46:48;;;;;;;11.80;5.18;;;9.10;99.90;;;;;;5121775;23;20034;-91
2020/12/21 11:49:30;;;;;;;12.65;6.43;;;9.10;99.90;;;;;;4972713;28;20054;-91
2020/12/21 11:51:56;;;;;;;12.77;5.20;;;9.10;99.90;;;;;;4938874;28;20039;-91
2020/12/21 11:54:35;;;;;;;9.15;4.72;;;9.10;99.90;;;;;;4928321;29;20083;-89
2020/12/21 11:57:28;;;;;;;9.63;5.30;;;9.10;99.90;;;;;;4940528;29;20047;-90
2020/12/21 12:00:11;;;;;;;12.90;5.97;;;9.20;99.90;;;;;;4901927;29;20049;-89
2020/12/21 12:02:37;;;;;;;8.27;4.57;;;9.20;99.90;;;;;;4936382;29;20027;-89
2020/12/21 12:05:04;;;;;;;10.48;4.55;;;9.20;99.90;;;;;;4922479;29;20056;-90
2020/12/21 12:07:32;;;;;;;9.55;5.00;;;9.10;99.90;;;;;;4952419;29;20039;-88
2020/12/21 12:10:00;;;;;;;11.60;5.00;;;9.10;99.90;;;;;;4923851;29;20042;-89
2020/12/21 12:12:25;;;;;;;9.20;4.93;;;9.10;99.90;;;;;;4919542;28;20017;-89
2020/12/21 12:14:57;;;;;;;12.25;5.53;;;9.10;99.90;;;;;;4937898;29;20067;-89
2020/12/21 12:17:23;;;;;;;11.27;4.70;;;9.10;99.90;;;;;;4929247;29;20039;-88
2020/12/21 12:19:49;;;;;;;8.93;4.75;;;9.10;99.90;;;;;;4910662;29;20516;-88
2020/12/21 12:22:17;;;;;;;14.10;5.95;;;9.00;99.90;;;;;;4907321;29;20032;-88
2020/12/21 12:24:56;;;;;;;14.90;5.15;;;9.00;99.90;;;;;;4923184;29;20032;-88
2020/12/21 12:27:37;;;;;;;9.13;4.65;;;8.90;99.90;;;;;;4930951;29;20131;-90
2020/12/21 12:30:15;;;;;;;9.35;5.28;;;8.90;99.90;;;;;;4935377;29;20154;-91
2020/12/21 12:32:42;;;;;;;13.38;7.10;;;8.80;99.90;;;;;;4962879;28;20038;-89
2020/12/21 12:35:10;;;;;;;11.20;5.53;;;8.80;99.90;;;;;;4907859;28;20054;-88
2020/12/21 12:37:36;;;;;;;13.60;5.93;;;8.70;99.90;;;;;;4964648;28;20139;-92
2020/12/21 12:40:03;;;;;;;12.07;6.13;;;8.70;99.90;;;;;;4973445;28;20063;-89
2020/12/21 12:42:46;;;;;;;11.10;5.28;;;8.70;99.90;;;;;;4979960;28;20085;-90
2020/12/21 12:45:18;;;;;;;16.65;6.28;;;8.70;99.90;;;;;;4954333;29;20019;-88
2020/12/21 12:47:58;;;;;;;14.52;6.75;;;8.60;99.90;;;;;;4956721;29;20063;-91
2020/12/21 12:50:26;;;;;;;12.50;5.97;;;8.60;99.90;;;;;;4916856;28;20495;-89
2020/12/21 12:52:53;;;;;;;12.25;6.28;;;8.60;99.90;;;;;;4961110;28;20278;-91
2020/12/21 12:55:24;;;;;;;12.38;7.15;;;8.60;99.90;;;;;;4958787;28;20043;-90
2020/12/21 12:57:52;;;;;;;13.63;6.55;;;8.70;99.90;;;;;;4968826;28;20037;-90
2020/12/21 13:00:23;;;;;;;13.60;6.88;;;8.60;99.90;;;;;;4910343;29;20044;-91
2020/12/21 13:02:50;;;;;;;11.00;5.65;;;8.60;99.90;;;;;;4914606;29;20062;-89
2020/12/21 13:05:17;;;;;;;11.00;6.47;;;8.60;99.90;;;;;;4921865;29;20067;-90
2020/12/21 13:07:43;;;;;;;9.20;5.25;;;8.70;99.90;;;;;;4900917;29;20031;-94
2020/12/21 13:10:19;;;;;;;9.82;5.93;;;8.70;99.90;;;;;;4879393;29;20064;-93
2020/12/21 13:12:46;;;;;;;8.82;5.43;;;8.70;99.90;;;;;;4892618;29;20037;-92
2020/12/21 13:15:15;;;;;;;13.15;5.85;;;8.70;99.90;;;;;;4853958;29;20036;-90
2020/12/21 13:17:41;;;;;;;12.40;5.95;;;8.70;99.90;;;;;;4853148;29;20041;-90
2020/12/21 13:20:41;;;;;;;11.93;4.90;;;8.70;99.90;;;;;;4910018;29;20051;-92
2020/12/21 13:28:50;;;;;;;10.80;6.15;;;8.60;99.90;;;;;;5686368;23;20055;-93
2020/12/21 13:38:12;;;;;;;14.95;5.90;;;8.60;99.90;;;;;;1640950;23;20308;-92
2020/12/21 13:40:39;;;;;;;14.50;5.90;;;8.50;99.90;;;;;;4937760;28;20059;-89
2020/12/21 13:43:23;;;;;;;8.75;5.32;;;8.60;99.90;;;;;;4923553;28;20028;-92
2020/12/21 13:53:56;;;;;;;10.73;5.72;;;8.60;99.90;;;;;;4969245;28;20054;-92
2020/12/21 13:56:34;;;;;;;14.18;6.03;;;8.60;99.90;;;;;;4940036;29;20130;-91
2020/12/21 13:59:02;;;;;;;10.80;5.40;;;8.60;99.90;;;;;;4885901;29;20046;-89